Aeroporto :
LOGIN :

Iscrizione | Disclaimer

   EN    FR    IT 

 










Sommario :    VFR   VFR Marginale   IFR   IFR Intensivo   IFR Molto Intensivo
Visibilità : 
Base nubi : 
>= 8 km
>= 3000ft
5 / 8 km
1000 / 3000 ft
1500m / 5 km
500 / 1000 ft
800 / 1500m
200 / 500 ft
< 800m
< 200 ft
Simboli :   Temporali  Nebbia  Neve Forte  Precipitazioni Forti  Vento > 20 kt
SIGMETs :   Varie  Temporali  Ghiacco  Turbolenza  Onda orograficha  Ceneri Vulcaniche







- Altitudine del aeroporto : 19 ft
- Codice IATA : BEB
- Carte del aeroporto


EGPL - Benbecula

ULTIMO METAR :
  • 201150Z 20019KT 2500 RADZ BR BKN004 OVC005 10/09 Q0999

METARs OBSOLETI :
  • 201120Z 19022KT 2500 RADZ BR BKN004 OVC005 10/10 Q0999
  • 201050Z 19024KT 2500 RADZ BR BKN004 OVC005 10/09 Q0998
  • 201020Z 19024KT 2500 RADZ BKN004 OVC005 10/09 Q0998

TAF AMD TAF EGPL
Valido dal 20 a 12 ore il 20 a 17 ore UTC


201204Z 2012/2017 22014KT 2500 RADZ BKN004
BECMG 2012/2014 9999 NSW FEW004
PROB40
TEMPO 2014/2017 24015G25KT BKN012
ATIS : +44 1870 604 818
Nessun NOTAM noto per questo aeroporto.
2 SIGMETs conosciuti per la FIR Scottish (EGPX) :
 
Forte onda orograficha
EGPX SIGMET 03 VALID 201330/201730 EGRR
EGPX SCOTTISH FIR SEV MTW FCST WI N5730 W00630 - N5930 W00215 - N5500 W00116 - N5500 W00330 - N5730 W00630 FL030/250 STNR WKN=
Forte onda orograficha
EGPX SIGMET 02 VALID 200930/201330 EGRR
EGPX SCOTTISH FIR SEV MTW FCST WI N5500 W00530 - N5355 W00530 - N5425 W00810 - N5507 W00713 - N5520 W00655 - N5838 W00648 - N5946 W00244 - N5847 W00016 - N5500 E00006 - N5500 W00530 FL030/250 STNR NC=



MetMap, La meteo Aeronautica in un colpo d'occhio ! - Copyright ORBIFLY Dicembre 2007 - Disclaimer

ORBIFLY MET'MAP TEAM :

Programmazione e sviluppo : Alexandra Zaïnal
Concezione e sviluppo : Baudouin d'Aumeries
Co-Programmazione e sviluppo : Marc-Olivier Méhu
Supporto tecnico e logistico : Manuel Goepfert
Aiuto per la traduzione : Arnaldo La Scala

Contatto : metmap@orbifly.com




FONTI E CREDITI :

   NOAA